Weather at Lesce Airfield

Public forecast

Using degrees Celsius for public forecast. Weather courtesy of forecast.io.

Closest aviation weather report (METAR) to Lesce Airfield

Closest report is Ljubljana Jože Pučnik Airport, 14.2 nm (26.4 km) SE.

2024/02/23 06:00 (retrieved 36 minutes ago)

LJLJ 230600Z 14004KT 110V190 8000 -RA FEW008 BKN025 OVC038 07/06 Q1003 RERA NOSIG

Closest aviation forecast (TAF) to Lesce Airfield

Closest forecast is Ljubljana Jože Pučnik Airport, 14.2 nm (26.4 km) SE.

2024/02/23 06:06 (retrieved 30 minutes ago)

TAF LJLJ 230500Z 2306/2406 11005KT 9999 -RA FEW015 SCT025 OVC035 TEMPO 2306/2320 5000 RA BKN013 OVC030 PROB30 TEMPO 2315/2320 SHRA SCT017TCU OVC025 BECMG 2320/2322 NSW TEMPO 2322/2400 -RA PROB30 TEMPO 2400/2406 -RA